This is the latest recevied weather packets stored in our database for station/object KI4FRU. If no packets are shown the sender has not sent any weather packets the latest 10 day(s).
| Time | Temp. | Humidity | Pressure | Rain* | Wind** | Luminosity | Snow |
|---|---|---|---|---|---|---|---|
| 1778177935 | 25° C | 79% | 1047 hPa | 0 mm | - | 788 W/m² | - |
| 1778177631 | 26.11° C | 78% | 1046.9 hPa | 0 mm | - | 153 W/m² | - |
| 1778177328 | 25.56° C | 83% | 1047 hPa | 0 mm | - | 167 W/m² | - |
| 1778177025 | 25.56° C | 80% | 1047.3 hPa | 0 mm | - | 144 W/m² | - |
| 1778176720 | 25.56° C | 79% | 1047.2 hPa | 0 mm | - | 178 W/m² | - |
| 1778176418 | 25.56° C | 80% | 1047.3 hPa | 0 mm | - | 142 W/m² | - |
| 1778176115 | 24.44° C | 79% | 1047.4 hPa | 0 mm | - | 411 W/m² | - |
| 1778175812 | 26.11° C | 81% | 1047.4 hPa | 0 mm | - | 105 W/m² | - |
| 1778175510 | 27.78° C | 73% | 1047.3 hPa | 0 mm | - | 150 W/m² | - |
| 1778175207 | 26.67° C | 72% | 1047.5 hPa | 0 mm | - | 885 W/m² | - |
| 1778174903 | 27.22° C | 73% | 1047.2 hPa | 0 mm | - | 162 W/m² | - |
| 1778174600 | 25.56° C | 76% | 1047.3 hPa | 0 mm | - | 890 W/m² | - |
| 1778174296 | 25° C | 81% | 1047.5 hPa | 0 mm | - | 718 W/m² | - |
| 1778173993 | 23.89° C | 83% | 1047.7 hPa | 0 mm | - | 758 W/m² | - |
| 1778173690 | 25° C | 82% | 1047.6 hPa | 0 mm | - | 148 W/m² | - |
| 1778173386 | 25.56° C | 80% | 1047.7 hPa | 0 mm | - | 749 W/m² | - |
| 1778173082 | 25.56° C | 87% | 1047.9 hPa | 0 mm | - | 193 W/m² | - |
| 1778172778 | 24.44° C | 81% | 1048 hPa | 0 mm | - | 825 W/m² | - |
| 1778172474 | 24.44° C | 88% | 1048.2 hPa | 0 mm | - | 80 W/m² | - |
| 1778172172 | 23.89° C | 88% | 1048.1 hPa | 0 mm | - | 181 W/m² | - |
| 1778171869 | 23.33° C | 91% | 1048.2 hPa | 0 mm | - | 777 W/m² | - |
| 1778171566 | 23.33° C | 91% | 1048.2 hPa | 0 mm | - | 777 W/m² | - |
| 1778171262 | 23.33° C | 90% | 1048.5 hPa | 0 mm | - | 640 W/m² | - |
| 1778170958 | 22.78° C | 92% | 1048.3 hPa | 0 mm | - | 783 W/m² | - |
| 1778170655 | 21.67° C | 97% | 1048.2 hPa | 0 mm | - | 1056 W/m² | - |
* Rain latest hour (hover to see other rain measurements)
** Current wind speed in m/s (hover to see current wind gust speed)